LiveATC.Net - Listen to live air traffic control over the Internet!

Find LiveATC Audio Streams


Airport/ARTCC Code

Frequency Search
(e.g., 124.400, 128.75)
Site-wide search
 


Browse LiveATC Feeds
LiveATC Coverage Map
Top 50 LiveATC Feeds
Bad Weather Areas

LiveATC FAQ
Offer a LiveATC Feed
Contact LiveATC.net
Press Inquiries

LiveATC on iPhone
LiveATC on Android

Windows Phone
Windows 8/10

LiveATC Mobile
(Mobile browser)

ATC Audio Archives
Interesting Recordings

LiveATC Forums

Home Page
About LiveATC.net
Make a Donation
LiveATC Store

Terms of Use
Privacy Policy

Canadian Air Freqs

AIRMETs/SIGMETs

FAA Airport Status
Nat'l Airspace Status
Arrival Demand Charts


Server Software By:
Icecast.org
Liquidsoap


Current Potentially Bad Weather Airports
(updated every 30 minutes - sorted alphabetically by ICAO code)



This page lists LiveATC.net airport areas that may be interesting to listen to because of challenging flying (weather) conditions. Challenging weather conditions include low ceilings, limited visibility, high or gusty winds, or thunderstorms.

Updated: Tue Aug 22 20:40:01 UTC 2017
Click on airport name to go to that airport area's feeds.

CYQI/CZQM CTAF/FIC/Center Yarmouth Airport (Yarmouth, CA-NS)
WX MAP UNAVAILABLENearest METAR:
CYQI 222000Z 19007KT 6SM BR OVC004 20/18 A2995 RMK SF8 SLP143 DENSITY ALT 800FT
CYRQ/CSR3 CTAF/UNICOM Trois Rivieres Airport (Trois-Rivieres, CA-QC)
WX MAP UNAVAILABLENearest METAR:
CYRQ 222027Z AUTO 04004KT 360V090 2 1/2SM RA BR FEW012 BKN022 BKN028 OVC035 21/20 A2953 RMK LTNG DIST ALQDS SLP003 DENSITY ALT 1300FT
KBHM Gnd/Twr/App Birmingham-Shuttlesworth International Airport (Birmingham, US-AL)
kbhmNearest METAR:
KBHM 222017Z 11008KT 7SM -RA SCT018 BKN038 OVC055 23/21 A3009 RMK AO2 PK WND 06026/1955 WSHFT 1941 LTG DSNT ALQDS TSE17 TS MOV E P0051 T02280211 $
KBOK CTAF Brookings Airport (Brookings, US-OR)
kbokNearest METAR:
KBOK 222024Z AUTO 17004KT 1SM BR OVC003 13/12 A3010 RMK AO2
KBTR/KHZR/L38 Del/Gnd/Twr/App/CTAF Baton Rouge Metropolitan Airport - Ryan Field (Baton Rouge, US-LA)
khzrNearest METAR:
KHZR 222015Z AUTO 00000KT 10SM CLR 32/24 A3002 RMK AO2 LTG DSNT SE AND W T03200235
KBTR/KHZR/L38 Del/Gnd/Twr/App/CTAF Baton Rouge Metropolitan Airport - Ryan Field (Baton Rouge, US-LA)
kbtrNearest METAR:
KBTR 222008Z 10005KT 10SM TS SCT040 33/22 A3003 RMK AO2 LTG DSNT S AND SW TSB08 T03280217
KBUF Tower/App Buffalo Niagara International Airport (Buffalo, US-NY)
kbufNearest METAR:
KBUF 221954Z COR 23016G23KT 10SM SCT015 BKN040 OVC130 24/21 A2970 RMK AO2 PK WND 22027/1915 LTG DSNT E TSB23E42 TS MOVD E SLP054 CB DSNT E T02440211
KCLT Del/Gnd/Twr Charlotte/Douglas International Airport (Charlotte, US-NC)
kcltNearest METAR:
KCLT 221952Z 18009KT 10SM FEW043 FEW160 SCT250 33/22 A3001 RMK AO2 LTG DSNT SE SLP153 CB DSNT SE-SW T03330222
KCRG Gnd/Twr/App Craig Municipal Airport (Jacksonville, US-FL)
kcrgNearest METAR:
KCRG 221953Z 14010KT 10SM CLR 32/22 A3004 RMK AO2 LTG DSNT NW SLP173 T03170222
KCRW Tower/Approach Yeager Airport (Charleston, US-WV)
kcrwNearest METAR:
KCRW 222013Z COR 25010KT 7SM -TSRA SCT043CB BKN065 BKN100 29/21 A2994 RMK AO2 LTG DSNT W-NE RAB10 TSB13 OCNL LTGIC SW TS SW-W MOV NE CB DSNT W-NE P0000 T02890206
KFTG/KEIK/KBDU/KLMO/Misc Boulder Municipal Airport (Boulder, US-CO)
kftgNearest METAR:
KFTG 222014Z AUTO 14016G22KT 10SM CLR 30/11 A3027 RMK AO2 LTG DSNT NW
KEVV Twr/ZID Evansville Regional Airport (Evansville, US-IN)
kevvNearest METAR:
KEVV 221954Z AUTO 34007KT 10SM FEW011 BKN060 BKN120 24/22 A2995 RMK AO2 LTG DSNT E-S RAE37 TSE04 SLP136 P0016 T02440222
KFDK Del/Gnd/Twr/CTAF #2 Frederick Municipal Airport (Frederick, US-MD)
kfdkNearest METAR:
KFDK 221950Z 21008KT 10SM SCT045 35/19 A2989 RMK LTG DSNT W
KGAO AWOS South Lafourche Leonard Miller Jr. Airport (Galliano, US-LA)
kgaoNearest METAR:
KGAO 222015Z AUTO 00000KT 10SM CLR 31/23 A3005 RMK AO2 LTG DSNT E T03060228
KHNB CTAF Huntingburg Airport (Huntingburg, US-IN)
khnbNearest METAR:
KHNB 221956Z AUTO 34009KT 290V010 10SM SCT027 BKN036 23/21 A2994 RMK AO2 WSHFT 1858 LTG DSNT E-SW TSE09RAE54 SLP135 P0003 T02280211
KHWV CTAF Brookhaven Airport (Shirley, US-NY)
khwvNearest METAR:
KHWV 221956Z AUTO 21014G20KT 9SM OVC007 27/25 A2989 RMK AO2 SLP121 T02720250
KHYA/KFMH Twr/Cape App Barnstable Municipal Airport-Boardman/Polando Field (Hyannis, US-MA)
khyaNearest METAR:
KHYA 221956Z 19010G17KT 7SM OVC006 24/23 A2989 RMK AO2 SLP123 T02390228
KHYA/KFMH Twr/Cape App Barnstable Municipal Airport-Boardman/Polando Field (Hyannis, US-MA)
kfmhNearest METAR:
KFMH 222015Z AUTO 21016G22KT 10SM OVC009 25/23 A2990 RMK AO2 FZRANO
KIAD Del/Gnd Washington Dulles International Airport (Washington, US-DC)
kiadNearest METAR:
KIAD 221952Z 18014G19KT 10SM FEW048 FEW100 33/23 A2987 RMK AO2 LTG DSNT W-NE SLP112 TCU DSNT NW-N T03280233
KILM Gnd/Twr/App/ZDC Wilmington International Airport (Wilmington, US-NC)
kilmNearest METAR:
KILM 221953Z 20008KT 10SM FEW044 SCT085 33/22 A3002 RMK AO2 LTG DSNT N SLP167 T03280222
KJAN Gnd/Twr/App/Dep Jackson-Medgar Wiley Evers International Airport (Jackson, US-MS)
kjanNearest METAR:
KJAN 221954Z VRB04KT 10SM BKN080 33/22 A3005 RMK AO2 LTG DSNT W AND NW SLP171 T03280222
KJAX Approach/Departure Jacksonville International Airport (Jacksonville, US-FL)
kjaxNearest METAR:
KJAX 221956Z 16006KT 10SM SCT040 BKN250 33/23 A3003 RMK AO2 LTG DSNT NW SLP169 T03280228
KJNX CTAF Johnston Regional Airport (Smithfield, US-NC)
kjnxNearest METAR:
KJNX 221945Z AUTO 21006KT 10SM SCT045 33/23 A3000 RMK AO2 LTG DSNT SE AND S
KLBB Gnd/Twr/App Lubbock Preston Smith International Airport (Lubbock, US-TX)
klbbNearest METAR:
KLBB 221953Z 00000KT 10SM FEW044 FEW250 32/18 A3015 RMK AO2 LTG DSNT SE AND S SLP155 CB DSNT ALQDS MOV SE TCU DSNT NW MDT CU ALQDS T03170178
KLFT Gnd/Twr/App Lafayette Regional Airport/Paul Fournet Field (Lafayette, US-LA)
klftNearest METAR:
KLFT 222009Z 22008KT 10SM BKN035 BKN065 27/22 A3004 RMK AO2 LTG DSNT E TSE03 T02720222
KLOU Del/Gnd/Twr Bowman Field Airport (Louisville, US-KY)
klouNearest METAR:
KLOU 221953Z 27006KT 10SM CLR 29/24 A2990 RMK AO2 LTG DSNT W SLP120 T02890239
KMAF Twr/App Midland International Airport (Midland, US-TX)
WX MAP UNAVAILABLENearest METAR:
KMAF 221953Z 15011KT 10SM CLR 34/16 A3010 RMK AO2 LTG DSNT N AND NW SLP140 T03390156
KMEV CTAF/Unicom Minden-Tahoe Airport (Minden, US-NV)
kmevNearest METAR:
KMEV 222015Z AUTO 20006KT 8SM CLR 29/07 A3019 RMK AO2 LTG DSNT SE AND NW
KMFR App/Dep Rogue Valley International - Medford Airport (Medford, US-OR)
kmfrNearest METAR:
KMFR 221953Z 00000KT 2 1/2SM FU BKN037 OVC044 26/12 A3005 RMK AO2 SLP164 T02610122
KMLC CTAF/ZFW McAlester Regional Airport (McAlester, US-OK)
kmlcNearest METAR:
KMLC 222023Z AUTO VRB03KT 10SM TS FEW090 34/24 A3002 RMK AO2 LTG DSNT NW TSB17 T03440239
KMSY Gnd/Twr/App Louis Armstrong New Orleans International Airport (New Orleans, US-LA)
kmsyNearest METAR:
KMSY 221953Z 19004KT 10SM FEW020 FEW050 FEW100 BKN250 27/23 A3006 RMK AO2 LTG DSNT ALQDS RAE20 TSE03 SLP181 OCNL LTGIC DSNT SW-W CB DSNT N-NE AND SW-W P0000 T02670228
KMVY Del/Gnd/Twr Martha's Vineyard Airport (Vineyard Haven, US-MA)
kmvyNearest METAR:
KMVY 221953Z 20016G22KT 8SM OVC006 24/22 A2992 RMK AO2 SLP131 T02440222
KNEW Del/Gnd/Twr Lakefront Airport (New Orleans, US-LA)
knewNearest METAR:
KNEW 222008Z 13009KT 10SM CLR 30/25 A3005 RMK AO2 LTG DSNT NW T03000250
KPIT Gnd/Twr/App Pittsburgh International Airport (Pittsburgh, US-PA)
kpitNearest METAR:
KPIT 221951Z 23009KT 8SM -TSRA FEW008 SCT030CB BKN050 OVC130 24/22 A2986 RMK AO2 LTG DSNT E-SW RAE01B31 TSE08B34 SLP108 OCNL LTGCCIC OHD TS OHD MOV NE P0001 T02390222
KPKB Gnd/Twr/Unicom Mid-Ohio Valley Regional Airport (Parkersburg, US-WV)
kpkbNearest METAR:
KPKB 222007Z 23009KT 10SM FEW025 FEW090 26/21 A2993 RMK AO2 LTG DSNT ALQDS RAE1955 TSE01 P0000 T02560211
KRNO Del/Gnd/Twr/App/ZOA Reno/Tahoe International Airport (Reno, US-NV)
krnoNearest METAR:
KRNO 221955Z VRB03KT 10SM SCT095TCU SCT120 SCT180 BKN230 32/06 A3017 RMK AO2 LTG DSNT SE-W SLP152 VIRGA CB DSNT SE AND W MOV NW TCU E-SE AND DSNT SW T03170061
KROC Tower/Approach Greater Rochester International Airport (Rochester, US-NY)
krocNearest METAR:
KROC 221954Z 23018G26KT 4SM TSRA BR FEW014 SCT043CB BKN080 OVC130 23/21 A2972 RMK AO2 PK WND 24027/1943 LTG DSNT S-W RAB18 TSB39 SLP062 OCNL LTGCCCG VC SE TS VC SE MOV E VIS NW-NE HYR P0003 T02280206 $
KSDF App/Dep #1 Louisville International Airport-Standiford Field (Louisville, US-KY)
ksdfNearest METAR:
KSDF 221956Z 28004KT 9SM FEW035 FEW120 BKN150 OVC250 29/22 A2990 RMK AO2 LTG DSNT W AND NW SLP117 CB DSNT W NW T02890222
KSYR Tower/Approach Syracuse Hancock International Airport (Syracuse, US-NY)
ksyrNearest METAR:
KSYR 222024Z 24012KT 6SM R28/6000VP6000FT -TSRA SCT032CB SCT044 OVC085 23/22 A2971 RMK AO2 LTG DSNT ALQDS TSE17B23 OCNL LTG DSNT SW CB DSNT NE AND SW P0000 T02280222
KTLH Del/Gnd/Twr/App Tallahassee Regional Airport (Tallahassee, US-FL)
ktlhNearest METAR:
KTLH 221953Z 08006KT 10SM SCT040 BKN100 BKN250 27/24 A3007 RMK AO2 LTG DSNT N AND E RAE13 TSE50 SLP180 P0002 T02670244 $
KTVL CTAF/Unicom Lake Tahoe Airport (South Lake Tahoe, US-CA)
ktvlNearest METAR:
KTVL 222025Z AUTO VRB04KT 10SM TS FEW033 22/11 A3031 RMK AO2 LTG DSNT E AND SE AND NW RAE13 TSB19 P0000 T02170111
KUNV ATIS/AWOS University Park Airport (State College, US-PA)
kunvNearest METAR:
KUNV 221953Z 22006KT 10SM VCTS SCT065 28/20 A2985 RMK LTG DSNT NW-NE
KUUU CTAF/Del Newport State Airport (Newport, US-RI)
kuuuNearest METAR:
KUUU 221953Z AUTO 20012G21KT 6SM BR OVC005 25/24 A2989 RMK AO2 SLP120 T02500239
MROC Del/Gnd/Twr/App/Center/Misc Juan Santamaria International Airport (San Jose, Costa Rica)
WX MAP UNAVAILABLENearest METAR:
MROC 222000Z 26010KT 9999 -TSRA FEW020CB SCT025TCU SCT100 25/23 A2997 BECMG 5000
OPKC Gnd/Twr/Radar #1 Jinnah International Airport (Karachi, Pakistan)
WX MAP UNAVAILABLENearest METAR:
OPKC 222025Z 30011KT 4000 TSRA FEW025CB BKN025 OVC080 25/24 Q1001 TEMPO TSRA
PASC CTAF/Unicom/AFIS/App Deadhorse Airport (Deadhorse, US-AK)
WX MAP UNAVAILABLENearest METAR:
PASC 221953Z 10009KT 10SM OVC004 07/07 A2972 RMK AO2 SLP066 T00670067
SAZS Tower/Approach San Carlos de Bariloche Airport (Rio Negro, Argentina)
WX MAP UNAVAILABLENearest METAR:
SAZS 222000Z 31017KT 0400 R29/0550U SN OVC003 00/00 Q1000